ADDS METAR Data

Data at: 0455 UTC 20 Apr 2018

METAR for:KSFM (Sanford Rgnl, ME, US)
Text:KSFM 200356Z AUTO 30007KT 10SM BKN110 03/M01 A2978 RMK AO2 SLP090 T00281011 400890022
Temperature: 2.8°C ( 37°F)
Dewpoint: -1.1°C ( 30°F) [RH = 75%]
Pressure (altimeter):29.78 inches Hg (1008.5 mb) [Sea level pressure: 1009.0 mb]
Winds:from the WNW (300 degrees) at 8 MPH (7 knots; 3.6 m/s)
Visibility:10 or more sm (16+ km)
Ceiling:11000 feet AGL
Clouds: broken clouds at 11000 feet AGL
QC Flag:automated observation with no human augmentation